sensor_id;sensor_type;location;lat;lon;timestamp;P1;durP1;ratioP1;P2;durP2;ratioP2
51298;SDS011;37382;45.192;9.790;2022-07-30T00:01:40;23.67;;;16.13;;
51298;SDS011;37382;45.192;9.790;2022-07-30T00:04:08;20.88;;;17.55;;
51298;SDS011;37382;45.192;9.790;2022-07-30T00:06:36;24.77;;;18.35;;
51298;SDS011;37382;45.192;9.790;2022-07-30T00:09:05;27.08;;;18.58;;
51298;SDS011;37382;45.192;9.790;2022-07-30T00:11:33;26.48;;;19.23;;
51298;SDS011;37382;45.192;9.790;2022-07-30T00:14:01;29.00;;;21.67;;
51298;SDS011;37382;45.192;9.790;2022-07-30T00:16:28;27.50;;;19.67;;
51298;SDS011;37382;45.192;9.790;2022-07-30T00:18:56;28.35;;;22.50;;
51298;SDS011;37382;45.192;9.790;2022-07-30T00:21:24;24.50;;;21.27;;
51298;SDS011;37382;45.192;9.790;2022-07-30T00:24:05;34.43;;;22.07;;
51298;SDS011;37382;45.192;9.790;2022-07-30T00:26:34;35.95;;;23.15;;
51298;SDS011;37382;45.192;9.790;2022-07-30T00:29:02;30.65;;;22.85;;
51298;SDS011;37382;45.192;9.790;2022-07-30T00:31:31;28.67;;;22.55;;
51298;SDS011;37382;45.192;9.790;2022-07-30T00:33:58;28.50;;;22.95;;
51298;SDS011;37382;45.192;9.790;2022-07-30T00:36:26;29.13;;;23.70;;
51298;SDS011;37382;45.192;9.790;2022-07-30T00:38:54;30.83;;;23.45;;
51298;SDS011;37382;45.192;9.790;2022-07-30T00:41:22;31.70;;;24.27;;
51298;SDS011;37382;45.192;9.790;2022-07-30T00:43:50;30.98;;;23.52;;
51298;SDS011;37382;45.192;9.790;2022-07-30T00:46:17;27.50;;;23.05;;
51298;SDS011;37382;45.192;9.790;2022-07-30T00:48:45;32.15;;;23.17;;
51298;SDS011;37382;45.192;9.790;2022-07-30T00:51:13;28.40;;;23.88;;
51298;SDS011;37382;45.192;9.790;2022-07-30T00:53:41;26.38;;;23.35;;
51298;SDS011;37382;45.192;9.790;2022-07-30T00:56:08;27.10;;;24.17;;
51298;SDS011;37382;45.192;9.790;2022-07-30T00:58:36;30.30;;;24.98;;
51298;SDS011;37382;45.192;9.790;2022-07-30T01:01:03;34.47;;;25.05;;
51298;SDS011;37382;45.192;9.790;2022-07-30T01:03:31;35.35;;;24.08;;
51298;SDS011;37382;45.192;9.790;2022-07-30T01:05:58;34.33;;;24.15;;
51298;SDS011;37382;45.192;9.790;2022-07-30T01:08:26;30.55;;;24.70;;
51298;SDS011;37382;45.192;9.790;2022-07-30T01:10:53;36.10;;;25.48;;
51298;SDS011;37382;45.192;9.790;2022-07-30T01:13:22;35.47;;;25.35;;
51298;SDS011;37382;45.192;9.790;2022-07-30T01:15:49;36.05;;;25.70;;
51298;SDS011;37382;45.192;9.790;2022-07-30T01:18:17;37.35;;;25.30;;
51298;SDS011;37382;45.192;9.790;2022-07-30T01:20:53;32.92;;;25.58;;
51298;SDS011;37382;45.192;9.790;2022-07-30T01:23:33;36.25;;;25.42;;
51298;SDS011;37382;45.192;9.790;2022-07-30T01:26:15;32.92;;;25.45;;
51298;SDS011;37382;45.192;9.790;2022-07-30T01:28:47;33.20;;;25.80;;
51298;SDS011;37382;45.192;9.790;2022-07-30T01:31:18;34.45;;;25.20;;
51298;SDS011;37382;45.192;9.790;2022-07-30T01:33:48;34.30;;;26.10;;
51298;SDS011;37382;45.192;9.790;2022-07-30T01:36:19;36.55;;;25.48;;
51298;SDS011;37382;45.192;9.790;2022-07-30T01:38:48;39.17;;;26.13;;
51298;SDS011;37382;45.192;9.790;2022-07-30T01:41:17;33.83;;;26.90;;
51298;SDS011;37382;45.192;9.790;2022-07-30T01:43:46;32.22;;;25.65;;
51298;SDS011;37382;45.192;9.790;2022-07-30T01:46:13;34.08;;;26.27;;
51298;SDS011;37382;45.192;9.790;2022-07-30T01:48:45;43.53;;;28.35;;
51298;SDS011;37382;45.192;9.790;2022-07-30T01:51:14;35.28;;;27.65;;
51298;SDS011;37382;45.192;9.790;2022-07-30T01:53:46;33.47;;;27.75;;
51298;SDS011;37382;45.192;9.790;2022-07-30T01:56:18;37.97;;;26.90;;
51298;SDS011;37382;45.192;9.790;2022-07-30T01:58:51;38.08;;;27.73;;
51298;SDS011;37382;45.192;9.790;2022-07-30T02:01:24;38.90;;;29.88;;
51298;SDS011;37382;45.192;9.790;2022-07-30T02:03:58;41.15;;;30.20;;
51298;SDS011;37382;45.192;9.790;2022-07-30T02:06:33;44.03;;;30.52;;
51298;SDS011;37382;45.192;9.790;2022-07-30T02:09:07;38.38;;;30.33;;
51298;SDS011;37382;45.192;9.790;2022-07-30T02:11:42;43.58;;;32.45;;
51298;SDS011;37382;45.192;9.790;2022-07-30T02:14:33;47.15;;;34.38;;
51298;SDS011;37382;45.192;9.790;2022-07-30T02:17:07;49.50;;;36.30;;
51298;SDS011;37382;45.192;9.790;2022-07-30T02:19:45;51.38;;;35.72;;
51298;SDS011;37382;45.192;9.790;2022-07-30T02:22:19;49.40;;;34.72;;
51298;SDS011;37382;45.192;9.790;2022-07-30T02:24:50;50.17;;;35.50;;
51298;SDS011;37382;45.192;9.790;2022-07-30T02:27:25;49.20;;;36.70;;
51298;SDS011;37382;45.192;9.790;2022-07-30T02:29:56;48.00;;;37.17;;
51298;SDS011;37382;45.192;9.790;2022-07-30T02:32:28;51.15;;;36.92;;
51298;SDS011;37382;45.192;9.790;2022-07-30T02:35:00;52.42;;;37.58;;
51298;SDS011;37382;45.192;9.790;2022-07-30T02:37:37;54.05;;;38.63;;
51298;SDS011;37382;45.192;9.790;2022-07-30T02:40:14;58.45;;;39.55;;
51298;SDS011;37382;45.192;9.790;2022-07-30T02:42:44;53.88;;;40.63;;
51298;SDS011;37382;45.192;9.790;2022-07-30T02:45:18;56.55;;;38.33;;
51298;SDS011;37382;45.192;9.790;2022-07-30T02:47:48;57.67;;;40.15;;
51298;SDS011;37382;45.192;9.790;2022-07-30T02:50:19;52.78;;;39.63;;
51298;SDS011;37382;45.192;9.790;2022-07-30T02:52:50;59.33;;;40.30;;
51298;SDS011;37382;45.192;9.790;2022-07-30T02:55:19;61.22;;;44.50;;
51298;SDS011;37382;45.192;9.790;2022-07-30T02:57:50;67.70;;;41.90;;
51298;SDS011;37382;45.192;9.790;2022-07-30T03:00:19;64.72;;;43.58;;
51298;SDS011;37382;45.192;9.790;2022-07-30T03:02:50;59.47;;;41.70;;
51298;SDS011;37382;45.192;9.790;2022-07-30T03:05:23;60.22;;;43.42;;
51298;SDS011;37382;45.192;9.790;2022-07-30T03:07:53;56.33;;;42.63;;
51298;SDS011;37382;45.192;9.790;2022-07-30T03:10:24;63.03;;;45.33;;
51298;SDS011;37382;45.192;9.790;2022-07-30T03:12:53;67.03;;;43.72;;
51298;SDS011;37382;45.192;9.790;2022-07-30T03:15:22;64.50;;;46.63;;
51298;SDS011;37382;45.192;9.790;2022-07-30T03:17:51;67.93;;;45.78;;
51298;SDS011;37382;45.192;9.790;2022-07-30T03:20:24;67.63;;;44.75;;
51298;SDS011;37382;45.192;9.790;2022-07-30T03:22:56;65.15;;;46.22;;
51298;SDS011;37382;45.192;9.790;2022-07-30T03:25:28;67.80;;;45.35;;
51298;SDS011;37382;45.192;9.790;2022-07-30T03:27:58;71.70;;;45.65;;
51298;SDS011;37382;45.192;9.790;2022-07-30T03:30:28;59.78;;;43.42;;
51298;SDS011;37382;45.192;9.790;2022-07-30T03:32:56;61.50;;;43.17;;
51298;SDS011;37382;45.192;9.790;2022-07-30T03:35:25;59.20;;;43.65;;
51298;SDS011;37382;45.192;9.790;2022-07-30T03:37:57;62.58;;;44.20;;
51298;SDS011;37382;45.192;9.790;2022-07-30T03:40:26;59.67;;;43.20;;
51298;SDS011;37382;45.192;9.790;2022-07-30T03:42:55;61.13;;;43.28;;
51298;SDS011;37382;45.192;9.790;2022-07-30T03:45:24;61.08;;;43.33;;
51298;SDS011;37382;45.192;9.790;2022-07-30T03:47:58;58.53;;;42.38;;
51298;SDS011;37382;45.192;9.790;2022-07-30T03:50:26;64.45;;;43.15;;
51298;SDS011;37382;45.192;9.790;2022-07-30T03:52:55;59.20;;;41.95;;
51298;SDS011;37382;45.192;9.790;2022-07-30T03:55:24;60.85;;;42.13;;
51298;SDS011;37382;45.192;9.790;2022-07-30T03:58:10;61.33;;;43.72;;
51298;SDS011;37382;45.192;9.790;2022-07-30T04:00:38;60.90;;;43.00;;
51298;SDS011;37382;45.192;9.790;2022-07-30T04:03:06;63.05;;;43.55;;
51298;SDS011;37382;45.192;9.790;2022-07-30T04:05:48;61.13;;;41.90;;
51298;SDS011;37382;45.192;9.790;2022-07-30T04:08:16;56.20;;;41.38;;
51298;SDS011;37382;45.192;9.790;2022-07-30T04:10:46;61.58;;;40.92;;
51298;SDS011;37382;45.192;9.790;2022-07-30T04:13:33;59.78;;;42.08;;
51298;SDS011;37382;45.192;9.790;2022-07-30T04:16:10;53.35;;;41.20;;
51298;SDS011;37382;45.192;9.790;2022-07-30T04:19:07;58.97;;;41.15;;
51298;SDS011;37382;45.192;9.790;2022-07-30T04:21:41;56.05;;;40.30;;
51298;SDS011;37382;45.192;9.790;2022-07-30T04:24:12;55.80;;;40.20;;
51298;SDS011;37382;45.192;9.790;2022-07-30T04:26:42;54.92;;;38.70;;
51298;SDS011;37382;45.192;9.790;2022-07-30T04:29:13;62.03;;;40.58;;
51298;SDS011;37382;45.192;9.790;2022-07-30T04:31:48;51.83;;;38.13;;
51298;SDS011;37382;45.192;9.790;2022-07-30T04:34:32;53.78;;;38.38;;
51298;SDS011;37382;45.192;9.790;2022-07-30T04:37:00;52.65;;;38.88;;
51298;SDS011;37382;45.192;9.790;2022-07-30T04:39:28;50.53;;;38.42;;
51298;SDS011;37382;45.192;9.790;2022-07-30T04:41:56;49.92;;;38.88;;
51298;SDS011;37382;45.192;9.790;2022-07-30T04:44:34;53.75;;;39.13;;
51298;SDS011;37382;45.192;9.790;2022-07-30T04:47:22;53.15;;;38.63;;
51298;SDS011;37382;45.192;9.790;2022-07-30T04:50:10;53.97;;;40.65;;
51298;SDS011;37382;45.192;9.790;2022-07-30T04:52:40;52.17;;;38.55;;
51298;SDS011;37382;45.192;9.790;2022-07-30T04:55:13;49.28;;;36.67;;
51298;SDS011;37382;45.192;9.790;2022-07-30T04:57:45;65.72;;;40.47;;
51298;SDS011;37382;45.192;9.790;2022-07-30T05:00:16;63.88;;;41.13;;
51298;SDS011;37382;45.192;9.790;2022-07-30T05:02:45;81.70;;;43.58;;
51298;SDS011;37382;45.192;9.790;2022-07-30T05:05:15;68.32;;;44.13;;
51298;SDS011;37382;45.192;9.790;2022-07-30T05:07:45;71.30;;;46.17;;
51298;SDS011;37382;45.192;9.790;2022-07-30T05:10:13;67.03;;;44.75;;
51298;SDS011;37382;45.192;9.790;2022-07-30T05:12:41;66.35;;;46.42;;
51298;SDS011;37382;45.192;9.790;2022-07-30T05:15:10;71.97;;;47.60;;
51298;SDS011;37382;45.192;9.790;2022-07-30T05:17:38;75.85;;;46.00;;
51298;SDS011;37382;45.192;9.790;2022-07-30T05:20:08;69.13;;;46.67;;
51298;SDS011;37382;45.192;9.790;2022-07-30T05:22:59;79.05;;;48.08;;
51298;SDS011;37382;45.192;9.790;2022-07-30T05:25:27;78.72;;;49.78;;
51298;SDS011;37382;45.192;9.790;2022-07-30T05:28:04;72.20;;;49.80;;
51298;SDS011;37382;45.192;9.790;2022-07-30T05:30:32;74.95;;;49.03;;
51298;SDS011;37382;45.192;9.790;2022-07-30T05:33:00;73.50;;;49.10;;
51298;SDS011;37382;45.192;9.790;2022-07-30T05:35:34;73.45;;;47.60;;
51298;SDS011;37382;45.192;9.790;2022-07-30T05:38:02;73.05;;;48.13;;
51298;SDS011;37382;45.192;9.790;2022-07-30T05:40:40;76.13;;;48.20;;
51298;SDS011;37382;45.192;9.790;2022-07-30T05:43:30;70.45;;;49.20;;
51298;SDS011;37382;45.192;9.790;2022-07-30T05:45:58;77.05;;;50.55;;
51298;SDS011;37382;45.192;9.790;2022-07-30T05:48:26;77.45;;;50.55;;
51298;SDS011;37382;45.192;9.790;2022-07-30T05:50:54;73.20;;;49.70;;
51298;SDS011;37382;45.192;9.790;2022-07-30T05:53:21;74.05;;;49.33;;
51298;SDS011;37382;45.192;9.790;2022-07-30T05:56:08;69.50;;;48.17;;
51298;SDS011;37382;45.192;9.790;2022-07-30T05:58:50;70.82;;;46.22;;
51298;SDS011;37382;45.192;9.790;2022-07-30T06:01:27;66.93;;;45.38;;
51298;SDS011;37382;45.192;9.790;2022-07-30T06:03:58;73.28;;;46.95;;
51298;SDS011;37382;45.192;9.790;2022-07-30T06:06:47;63.25;;;42.60;;
51298;SDS011;37382;45.192;9.790;2022-07-30T06:09:15;60.15;;;40.97;;
51298;SDS011;37382;45.192;9.790;2022-07-30T06:11:48;60.97;;;39.15;;
51298;SDS011;37382;45.192;9.790;2022-07-30T06:14:17;61.20;;;39.35;;
51298;SDS011;37382;45.192;9.790;2022-07-30T06:16:44;52.78;;;38.55;;
51298;SDS011;37382;45.192;9.790;2022-07-30T06:19:12;49.10;;;36.75;;
51298;SDS011;37382;45.192;9.790;2022-07-30T06:21:45;57.17;;;35.17;;
51298;SDS011;37382;45.192;9.790;2022-07-30T06:24:35;47.22;;;33.70;;
51298;SDS011;37382;45.192;9.790;2022-07-30T06:27:09;48.75;;;35.60;;
51298;SDS011;37382;45.192;9.790;2022-07-30T06:29:38;46.03;;;32.38;;
51298;SDS011;37382;45.192;9.790;2022-07-30T06:32:05;44.63;;;30.88;;
51298;SDS011;37382;45.192;9.790;2022-07-30T06:34:33;46.10;;;32.70;;
51298;SDS011;37382;45.192;9.790;2022-07-30T06:37:01;42.35;;;31.05;;
51298;SDS011;37382;45.192;9.790;2022-07-30T06:39:29;42.13;;;29.48;;
51298;SDS011;37382;45.192;9.790;2022-07-30T06:42:19;35.97;;;28.33;;
51298;SDS011;37382;45.192;9.790;2022-07-30T06:45:06;38.05;;;27.10;;
51298;SDS011;37382;45.192;9.790;2022-07-30T06:48:06;34.40;;;25.90;;
51298;SDS011;37382;45.192;9.790;2022-07-30T06:50:34;36.10;;;25.38;;
51298;SDS011;37382;45.192;9.790;2022-07-30T06:53:02;35.60;;;25.90;;
51298;SDS011;37382;45.192;9.790;2022-07-30T06:55:50;29.23;;;22.55;;
51298;SDS011;37382;45.192;9.790;2022-07-30T06:58:26;31.05;;;22.73;;
51298;SDS011;37382;45.192;9.790;2022-07-30T07:01:11;28.10;;;19.80;;
51298;SDS011;37382;45.192;9.790;2022-07-30T07:03:39;28.65;;;21.23;;
51298;SDS011;37382;45.192;9.790;2022-07-30T07:06:07;23.30;;;18.67;;
51298;SDS011;37382;45.192;9.790;2022-07-30T07:08:36;28.60;;;20.90;;
51298;SDS011;37382;45.192;9.790;2022-07-30T07:11:06;22.85;;;19.40;;
51298;SDS011;37382;45.192;9.790;2022-07-30T07:13:43;19.33;;;17.20;;
51298;SDS011;37382;45.192;9.790;2022-07-30T07:16:18;18.63;;;15.27;;
51298;SDS011;37382;45.192;9.790;2022-07-30T07:18:49;19.23;;;16.27;;
51298;SDS011;37382;45.192;9.790;2022-07-30T07:21:19;17.92;;;14.35;;
51298;SDS011;37382;45.192;9.790;2022-07-30T07:23:47;18.17;;;14.65;;
51298;SDS011;37382;45.192;9.790;2022-07-30T07:26:47;20.00;;;15.23;;
51298;SDS011;37382;45.192;9.790;2022-07-30T07:29:14;19.52;;;15.50;;
51298;SDS011;37382;45.192;9.790;2022-07-30T07:31:43;18.15;;;14.43;;
51298;SDS011;37382;45.192;9.790;2022-07-30T07:34:31;16.35;;;12.45;;
51298;SDS011;37382;45.192;9.790;2022-07-30T07:36:59;12.20;;;6.18;;
51298;SDS011;37382;45.192;9.790;2022-07-30T07:39:27;6.65;;;5.97;;
51298;SDS011;37382;45.192;9.790;2022-07-30T07:41:55;6.88;;;6.15;;
51298;SDS011;37382;45.192;9.790;2022-07-30T07:44:24;7.60;;;6.88;;
51298;SDS011;37382;45.192;9.790;2022-07-30T07:46:52;9.57;;;6.57;;
51298;SDS011;37382;45.192;9.790;2022-07-30T07:49:21;7.85;;;6.50;;
51298;SDS011;37382;45.192;9.790;2022-07-30T07:51:50;10.10;;;7.10;;
51298;SDS011;37382;45.192;9.790;2022-07-30T07:54:19;14.18;;;7.50;;
51298;SDS011;37382;45.192;9.790;2022-07-30T07:56:50;8.70;;;6.60;;
51298;SDS011;37382;45.192;9.790;2022-07-30T07:59:21;9.82;;;7.90;;
51298;SDS011;37382;45.192;9.790;2022-07-30T08:01:53;10.23;;;7.82;;
51298;SDS011;37382;45.192;9.790;2022-07-30T08:04:21;9.05;;;7.53;;
51298;SDS011;37382;45.192;9.790;2022-07-30T08:07:23;10.80;;;7.97;;
51298;SDS011;37382;45.192;9.790;2022-07-30T08:10:10;11.43;;;7.88;;
51298;SDS011;37382;45.192;9.790;2022-07-30T08:12:58;10.40;;;8.32;;
51298;SDS011;37382;45.192;9.790;2022-07-30T08:15:44;10.50;;;9.30;;
51298;SDS011;37382;45.192;9.790;2022-07-30T08:18:35;11.52;;;8.60;;
51298;SDS011;37382;45.192;9.790;2022-07-30T08:21:15;13.77;;;9.52;;
51298;SDS011;37382;45.192;9.790;2022-07-30T08:23:42;10.15;;;9.00;;
51298;SDS011;37382;45.192;9.790;2022-07-30T08:26:10;20.75;;;9.90;;
51298;SDS011;37382;45.192;9.790;2022-07-30T08:28:38;12.57;;;8.75;;
51298;SDS011;37382;45.192;9.790;2022-07-30T08:31:06;9.88;;;8.90;;
51298;SDS011;37382;45.192;9.790;2022-07-30T08:33:34;13.05;;;9.07;;
51298;SDS011;37382;45.192;9.790;2022-07-30T08:36:03;16.85;;;9.63;;
51298;SDS011;37382;45.192;9.790;2022-07-30T08:38:36;10.63;;;9.50;;
51298;SDS011;37382;45.192;9.790;2022-07-30T08:41:05;13.52;;;10.13;;
51298;SDS011;37382;45.192;9.790;2022-07-30T08:43:34;13.00;;;10.30;;
51298;SDS011;37382;45.192;9.790;2022-07-30T08:46:06;12.57;;;11.18;;
51298;SDS011;37382;45.192;9.790;2022-07-30T08:51:15;17.83;;;9.68;;
51298;SDS011;37382;45.192;9.790;2022-07-30T08:54:02;13.77;;;10.80;;
51298;SDS011;37382;45.192;9.790;2022-07-30T08:56:32;15.45;;;11.18;;
51298;SDS011;37382;45.192;9.790;2022-07-30T08:59:00;12.55;;;11.25;;
51298;SDS011;37382;45.192;9.790;2022-07-30T09:01:28;17.98;;;10.20;;
51298;SDS011;37382;45.192;9.790;2022-07-30T09:03:56;18.83;;;15.75;;
51298;SDS011;37382;45.192;9.790;2022-07-30T09:06:26;19.10;;;15.55;;
51298;SDS011;37382;45.192;9.790;2022-07-30T09:08:54;16.27;;;14.60;;
51298;SDS011;37382;45.192;9.790;2022-07-30T09:11:21;16.90;;;12.57;;
51298;SDS011;37382;45.192;9.790;2022-07-30T09:13:49;23.50;;;17.83;;
51298;SDS011;37382;45.192;9.790;2022-07-30T09:16:21;23.33;;;17.50;;
51298;SDS011;37382;45.192;9.790;2022-07-30T09:18:52;24.45;;;16.33;;
51298;SDS011;37382;45.192;9.790;2022-07-30T09:21:25;20.95;;;17.45;;
51298;SDS011;37382;45.192;9.790;2022-07-30T09:24:18;22.65;;;16.90;;
51298;SDS011;37382;45.192;9.790;2022-07-30T09:26:58;20.10;;;16.17;;
51298;SDS011;37382;45.192;9.790;2022-07-30T09:29:48;26.48;;;17.23;;
51298;SDS011;37382;45.192;9.790;2022-07-30T09:32:46;17.33;;;14.10;;
51298;SDS011;37382;45.192;9.790;2022-07-30T09:35:41;19.05;;;16.42;;
51298;SDS011;37382;45.192;9.790;2022-07-30T09:38:10;24.10;;;20.27;;
51298;SDS011;37382;45.192;9.790;2022-07-30T09:40:57;32.05;;;22.52;;
51298;SDS011;37382;45.192;9.790;2022-07-30T09:43:51;26.30;;;22.48;;
51298;SDS011;37382;45.192;9.790;2022-07-30T09:46:39;25.92;;;22.05;;
51298;SDS011;37382;45.192;9.790;2022-07-30T09:49:13;25.77;;;21.75;;
51298;SDS011;37382;45.192;9.790;2022-07-30T09:51:42;26.77;;;21.98;;
51298;SDS011;37382;45.192;9.790;2022-07-30T09:54:48;22.73;;;19.98;;
51298;SDS011;37382;45.192;9.790;2022-07-30T09:57:23;23.73;;;16.90;;
51298;SDS011;37382;45.192;9.790;2022-07-30T10:00:24;25.33;;;18.88;;
51298;SDS011;37382;45.192;9.790;2022-07-30T10:03:15;29.45;;;20.25;;
51298;SDS011;37382;45.192;9.790;2022-07-30T10:06:30;30.00;;;22.60;;
51298;SDS011;37382;45.192;9.790;2022-07-30T10:09:32;28.85;;;19.38;;
51298;SDS011;37382;45.192;9.790;2022-07-30T10:12:05;24.70;;;19.70;;
51298;SDS011;37382;45.192;9.790;2022-07-30T10:14:41;22.27;;;18.85;;
51298;SDS011;37382;45.192;9.790;2022-07-30T10:17:14;22.40;;;18.27;;
51298;SDS011;37382;45.192;9.790;2022-07-30T10:20:04;24.63;;;17.73;;
51298;SDS011;37382;45.192;9.790;2022-07-30T10:22:54;31.80;;;22.08;;
51298;SDS011;37382;45.192;9.790;2022-07-30T10:25:33;22.83;;;19.20;;
51298;SDS011;37382;45.192;9.790;2022-07-30T10:28:34;21.50;;;17.85;;
51298;SDS011;37382;45.192;9.790;2022-07-30T10:31:05;23.58;;;18.55;;
51298;SDS011;37382;45.192;9.790;2022-07-30T10:33:53;22.92;;;18.65;;
51298;SDS011;37382;45.192;9.790;2022-07-30T10:36:21;30.75;;;20.67;;
51298;SDS011;37382;45.192;9.790;2022-07-30T10:38:50;19.90;;;17.25;;
51298;SDS011;37382;45.192;9.790;2022-07-30T10:47:10;31.70;;;18.13;;
51298;SDS011;37382;45.192;9.790;2022-07-30T10:49:40;24.10;;;18.58;;
51298;SDS011;37382;45.192;9.790;2022-07-30T10:52:09;23.10;;;17.35;;
51298;SDS011;37382;45.192;9.790;2022-07-30T10:54:42;22.58;;;17.05;;
51298;SDS011;37382;45.192;9.790;2022-07-30T11:02:31;21.83;;;14.95;;
51298;SDS011;37382;45.192;9.790;2022-07-30T11:08:27;22.73;;;17.55;;
51298;SDS011;37382;45.192;9.790;2022-07-30T11:11:03;21.48;;;15.60;;
51298;SDS011;37382;45.192;9.790;2022-07-30T11:13:56;29.38;;;15.27;;
51298;SDS011;37382;45.192;9.790;2022-07-30T11:19:06;24.88;;;16.23;;
51298;SDS011;37382;45.192;9.790;2022-07-30T11:22:23;19.42;;;15.65;;
51298;SDS011;37382;45.192;9.790;2022-07-30T11:25:11;19.08;;;14.07;;
51298;SDS011;37382;45.192;9.790;2022-07-30T11:34:26;16.80;;;13.60;;
51298;SDS011;37382;45.192;9.790;2022-07-30T11:37:03;13.30;;;12.00;;
51298;SDS011;37382;45.192;9.790;2022-07-30T11:40:10;18.35;;;14.85;;
51298;SDS011;37382;45.192;9.790;2022-07-30T11:42:38;26.13;;;17.02;;
51298;SDS011;37382;45.192;9.790;2022-07-30T11:45:25;20.20;;;15.97;;
51298;SDS011;37382;45.192;9.790;2022-07-30T11:47:55;20.88;;;15.93;;
51298;SDS011;37382;45.192;9.790;2022-07-30T11:52:58;20.90;;;15.40;;
51298;SDS011;37382;45.192;9.790;2022-07-30T11:55:31;19.25;;;16.70;;
51298;SDS011;37382;45.192;9.790;2022-07-30T11:58:03;22.33;;;18.08;;
51298;SDS011;37382;45.192;9.790;2022-07-30T12:03:08;23.35;;;17.13;;
51298;SDS011;37382;45.192;9.790;2022-07-30T12:05:40;22.23;;;17.65;;
51298;SDS011;37382;45.192;9.790;2022-07-30T12:08:08;17.38;;;13.90;;
51298;SDS011;37382;45.192;9.790;2022-07-30T12:10:58;15.50;;;12.88;;
51298;SDS011;37382;45.192;9.790;2022-07-30T12:13:26;14.88;;;12.82;;
51298;SDS011;37382;45.192;9.790;2022-07-30T12:16:15;18.02;;;14.15;;
51298;SDS011;37382;45.192;9.790;2022-07-30T12:18:44;17.05;;;12.65;;
51298;SDS011;37382;45.192;9.790;2022-07-30T12:21:13;15.60;;;11.23;;
51298;SDS011;37382;45.192;9.790;2022-07-30T12:23:54;14.82;;;10.85;;
51298;SDS011;37382;45.192;9.790;2022-07-30T12:26:31;11.98;;;10.80;;
51298;SDS011;37382;45.192;9.790;2022-07-30T12:29:09;13.10;;;11.65;;
51298;SDS011;37382;45.192;9.790;2022-07-30T12:31:39;12.65;;;11.25;;
51298;SDS011;37382;45.192;9.790;2022-07-30T12:34:17;16.33;;;11.55;;
51298;SDS011;37382;45.192;9.790;2022-07-30T12:36:49;10.35;;;9.23;;
51298;SDS011;37382;45.192;9.790;2022-07-30T12:39:25;12.63;;;10.20;;
51298;SDS011;37382;45.192;9.790;2022-07-30T12:41:54;11.48;;;9.40;;
51298;SDS011;37382;45.192;9.790;2022-07-30T12:47:05;11.88;;;10.68;;
51298;SDS011;37382;45.192;9.790;2022-07-30T12:49:45;11.68;;;10.55;;
51298;SDS011;37382;45.192;9.790;2022-07-30T12:57:50;8.30;;;7.50;;
51298;SDS011;37382;45.192;9.790;2022-07-30T13:03:20;10.20;;;7.85;;
51298;SDS011;37382;45.192;9.790;2022-07-30T13:05:50;10.88;;;7.93;;
51298;SDS011;37382;45.192;9.790;2022-07-30T13:11:23;7.72;;;7.03;;
51298;SDS011;37382;45.192;9.790;2022-07-30T13:13:52;7.93;;;7.18;;
51298;SDS011;37382;45.192;9.790;2022-07-30T13:16:20;8.32;;;6.55;;
51298;SDS011;37382;45.192;9.790;2022-07-30T13:18:48;4.93;;;4.40;;
51298;SDS011;37382;45.192;9.790;2022-07-30T13:21:15;3.95;;;3.33;;
51298;SDS011;37382;45.192;9.790;2022-07-30T13:23:43;6.20;;;3.60;;
51298;SDS011;37382;45.192;9.790;2022-07-30T13:26:10;7.15;;;3.60;;
51298;SDS011;37382;45.192;9.790;2022-07-30T13:28:38;6.05;;;3.75;;
51298;SDS011;37382;45.192;9.790;2022-07-30T13:31:06;6.40;;;3.55;;
51298;SDS011;37382;45.192;9.790;2022-07-30T13:33:34;3.80;;;3.50;;
51298;SDS011;37382;45.192;9.790;2022-07-30T13:36:03;8.32;;;3.55;;
51298;SDS011;37382;45.192;9.790;2022-07-30T13:38:31;4.65;;;3.22;;
51298;SDS011;37382;45.192;9.790;2022-07-30T13:40:59;7.75;;;3.42;;
51298;SDS011;37382;45.192;9.790;2022-07-30T13:43:29;11.63;;;3.97;;
51298;SDS011;37382;45.192;9.790;2022-07-30T13:48:29;2.60;;;2.40;;
51298;SDS011;37382;45.192;9.790;2022-07-30T13:50:58;4.97;;;3.20;;
51298;SDS011;37382;45.192;9.790;2022-07-30T13:53:27;6.00;;;2.20;;
51298;SDS011;37382;45.192;9.790;2022-07-30T13:55:56;10.65;;;2.42;;
51298;SDS011;37382;45.192;9.790;2022-07-30T13:58:25;4.30;;;1.65;;
51298;SDS011;37382;45.192;9.790;2022-07-30T14:00:53;4.97;;;2.30;;
51298;SDS011;37382;45.192;9.790;2022-07-30T14:03:21;8.10;;;2.90;;
51298;SDS011;37382;45.192;9.790;2022-07-30T14:05:48;2.03;;;1.20;;
51298;SDS011;37382;45.192;9.790;2022-07-30T14:08:16;1.50;;;1.25;;
51298;SDS011;37382;45.192;9.790;2022-07-30T14:10:43;2.35;;;0.98;;
51298;SDS011;37382;45.192;9.790;2022-07-30T14:13:11;1.52;;;1.20;;
51298;SDS011;37382;45.192;9.790;2022-07-30T14:15:47;7.43;;;1.40;;
51298;SDS011;37382;45.192;9.790;2022-07-30T14:18:14;2.67;;;1.80;;
51298;SDS011;37382;45.192;9.790;2022-07-30T14:20:42;2.65;;;1.40;;
51298;SDS011;37382;45.192;9.790;2022-07-30T14:23:15;7.40;;;1.55;;
51298;SDS011;37382;45.192;9.790;2022-07-30T14:25:43;1.33;;;1.23;;
51298;SDS011;37382;45.192;9.790;2022-07-30T14:28:11;8.10;;;1.45;;
51298;SDS011;37382;45.192;9.790;2022-07-30T14:30:39;5.85;;;1.30;;
51298;SDS011;37382;45.192;9.790;2022-07-30T14:33:06;5.53;;;1.20;;
51298;SDS011;37382;45.192;9.790;2022-07-30T14:35:34;1.67;;;1.15;;
51298;SDS011;37382;45.192;9.790;2022-07-30T14:38:02;7.43;;;1.40;;
51298;SDS011;37382;45.192;9.790;2022-07-30T14:40:29;8.57;;;0.80;;
51298;SDS011;37382;45.192;9.790;2022-07-30T14:42:57;1.02;;;0.80;;
51298;SDS011;37382;45.192;9.790;2022-07-30T14:45:25;1.40;;;1.23;;
51298;SDS011;37382;45.192;9.790;2022-07-30T14:47:54;4.85;;;1.60;;
51298;SDS011;37382;45.192;9.790;2022-07-30T14:50:22;9.55;;;1.27;;
51298;SDS011;37382;45.192;9.790;2022-07-30T14:52:49;3.90;;;1.52;;
51298;SDS011;37382;45.192;9.790;2022-07-30T14:55:18;3.75;;;1.35;;
51298;SDS011;37382;45.192;9.790;2022-07-30T14:57:46;2.70;;;1.10;;
51298;SDS011;37382;45.192;9.790;2022-07-30T15:00:13;12.20;;;1.73;;
51298;SDS011;37382;45.192;9.790;2022-07-30T15:02:41;5.45;;;1.30;;
51298;SDS011;37382;45.192;9.790;2022-07-30T15:05:09;11.80;;;1.50;;
51298;SDS011;37382;45.192;9.790;2022-07-30T15:07:36;4.60;;;1.40;;
51298;SDS011;37382;45.192;9.790;2022-07-30T15:10:04;8.20;;;1.30;;
51298;SDS011;37382;45.192;9.790;2022-07-30T15:12:33;2.22;;;1.27;;
51298;SDS011;37382;45.192;9.790;2022-07-30T15:15:03;1.85;;;1.20;;
51298;SDS011;37382;45.192;9.790;2022-07-30T15:17:34;4.03;;;0.60;;
51298;SDS011;37382;45.192;9.790;2022-07-30T15:20:05;4.38;;;0.80;;
51298;SDS011;37382;45.192;9.790;2022-07-30T15:22:35;5.35;;;1.20;;
51298;SDS011;37382;45.192;9.790;2022-07-30T15:25:03;1.00;;;0.82;;
51298;SDS011;37382;45.192;9.790;2022-07-30T15:27:31;2.60;;;0.95;;
51298;SDS011;37382;45.192;9.790;2022-07-30T15:30:00;2.05;;;1.10;;
51298;SDS011;37382;45.192;9.790;2022-07-30T15:32:28;2.20;;;0.68;;
51298;SDS011;37382;45.192;9.790;2022-07-30T15:34:56;1.15;;;0.75;;
51298;SDS011;37382;45.192;9.790;2022-07-30T15:37:24;1.30;;;0.90;;
51298;SDS011;37382;45.192;9.790;2022-07-30T15:39:52;2.85;;;0.77;;
51298;SDS011;37382;45.192;9.790;2022-07-30T15:42:20;1.70;;;0.60;;
51298;SDS011;37382;45.192;9.790;2022-07-30T15:44:47;1.23;;;0.70;;
51298;SDS011;37382;45.192;9.790;2022-07-30T15:47:35;0.70;;;0.60;;
51298;SDS011;37382;45.192;9.790;2022-07-30T15:50:03;1.20;;;0.55;;
51298;SDS011;37382;45.192;9.790;2022-07-30T15:52:31;0.68;;;0.43;;